createdAt,value
2019-01-23T00:00:18.097Z,57.90
2019-01-23T00:01:18.140Z,56.30
2019-01-23T00:02:18.077Z,58.70
2019-01-23T00:03:18.066Z,55.80
2019-01-23T00:04:18.054Z,57.00
2019-01-23T00:05:18.045Z,58.10
2019-01-23T00:06:18.033Z,58.30
2019-01-23T00:07:18.067Z,59.50
2019-01-23T00:08:18.011Z,56.60
2019-01-23T00:09:18.040Z,58.70
2019-01-23T00:10:17.989Z,60.50
2019-01-23T00:11:17.977Z,56.30
2019-01-23T00:12:17.971Z,58.50
2019-01-23T00:13:17.958Z,56.40
2019-01-23T00:14:17.993Z,55.40
2019-01-23T00:15:17.936Z,55.20
2019-01-23T00:16:17.924Z,54.80
2019-01-23T00:17:17.913Z,59.00
2019-01-23T00:18:17.900Z,55.00
2019-01-23T00:19:17.931Z,58.20
2019-01-23T00:20:17.880Z,57.80
2019-01-23T00:21:17.869Z,56.50
2019-01-23T00:22:17.865Z,57.70
2019-01-23T00:23:17.851Z,55.30
2019-01-23T00:24:17.887Z,55.00
2019-01-23T00:25:17.823Z,58.30
2019-01-23T00:26:17.816Z,55.00
2019-01-23T00:27:17.844Z,54.10
2019-01-23T00:28:17.792Z,57.30
2019-01-23T00:29:17.789Z,56.60
2019-01-23T00:30:17.780Z,53.20
2019-01-23T00:31:17.761Z,54.50
2019-01-23T00:32:17.809Z,56.50
2019-01-23T00:33:17.739Z,56.20
2019-01-23T00:34:17.726Z,56.90
2019-01-23T00:35:17.723Z,54.20
2019-01-23T00:36:17.705Z,54.60
2019-01-23T00:37:17.701Z,55.20
2019-01-23T00:38:17.736Z,54.00
2019-01-23T00:39:17.673Z,55.30
2019-01-23T00:40:17.665Z,53.60
2019-01-23T00:41:17.653Z,57.10
2019-01-23T00:42:17.639Z,53.60
2019-01-23T00:43:17.628Z,58.60
2019-01-23T00:44:17.673Z,54.30
2019-01-23T00:45:17.612Z,57.50
2019-01-23T00:46:17.596Z,57.70
2019-01-23T00:47:17.593Z,52.90
2019-01-23T00:48:17.614Z,57.20
2019-01-23T00:49:17.563Z,51.10
2019-01-23T00:50:17.607Z,53.10
2019-01-23T00:51:17.550Z,57.20
2019-01-23T00:52:17.530Z,54.00
2019-01-23T00:53:17.523Z,53.70
2019-01-23T00:54:17.508Z,55.90
2019-01-23T00:55:17.497Z,55.70
2019-01-23T00:56:17.543Z,54.50
2019-01-23T00:57:17.475Z,53.30
2019-01-23T00:58:17.464Z,51.40
2019-01-23T00:59:17.467Z,52.40
2019-01-23T01:00:17.442Z,53.70
2019-01-23T01:01:17.479Z,56.60
2019-01-23T01:02:17.447Z,53.50
2019-01-23T01:03:17.411Z,56.80
2019-01-23T01:04:17.448Z,54.70
2019-01-23T01:05:17.395Z,54.00
2019-01-23T01:06:17.377Z,55.20
2019-01-23T01:07:17.366Z,55.10
2019-01-23T01:08:17.357Z,54.10
2019-01-23T01:09:17.345Z,52.80
2019-01-23T01:10:17.387Z,53.40
2019-01-23T01:11:17.328Z,56.30
2019-01-23T01:12:17.311Z,58.30
2019-01-23T01:13:17.352Z,57.90
2019-01-23T01:14:17.290Z,55.30
2019-01-23T01:15:17.280Z,55.50
2019-01-23T01:16:17.268Z,53.50
2019-01-23T01:17:17.264Z,52.10
2019-01-23T01:18:17.246Z,53.80
2019-01-23T01:19:17.278Z,54.40
2019-01-23T01:20:17.227Z,57.80
2019-01-23T01:21:17.214Z,53.90
2019-01-23T01:22:17.201Z,51.60
2019-01-23T01:23:17.197Z,54.00
2019-01-23T01:24:17.235Z,56.80
2019-01-23T01:25:17.226Z,53.20
2019-01-23T01:26:17.161Z,55.50
2019-01-23T01:27:17.150Z,56.10
2019-01-23T01:28:17.137Z,54.10
2019-01-23T01:29:17.131Z,55.30
2019-01-23T01:30:17.156Z,52.50
2019-01-23T01:31:17.106Z,57.20
2019-01-23T01:32:17.094Z,51.10
2019-01-23T01:33:17.082Z,53.00
2019-01-23T01:34:17.072Z,54.40
2019-01-23T01:35:17.114Z,52.90
2019-01-23T01:36:17.050Z,52.50
2019-01-23T01:37:17.040Z,51.50
2019-01-23T01:38:17.028Z,50.60
2019-01-23T01:39:17.019Z,51.10
2019-01-23T01:40:17.008Z,52.70
2019-01-23T01:41:17.042Z,54.60
2019-01-23T01:42:17.007Z,54.50
2019-01-23T01:43:16.974Z,54.40
2019-01-23T01:44:16.963Z,52.50
2019-01-23T01:45:16.954Z,52.30
2019-01-23T01:46:16.943Z,52.40
2019-01-23T01:47:16.979Z,52.40
2019-01-23T01:48:16.921Z,55.10
2019-01-23T01:49:16.907Z,52.20
2019-01-23T01:50:16.900Z,54.30
2019-01-23T01:51:16.887Z,53.60
2019-01-23T01:52:16.879Z,54.00
2019-01-23T01:53:16.934Z,53.70
2019-01-23T01:54:16.853Z,50.90
2019-01-23T01:55:16.848Z,50.60
2019-01-23T01:56:16.871Z,52.00
2019-01-23T01:57:16.870Z,53.30
2019-01-23T01:58:16.853Z,52.90
2019-01-23T01:59:16.806Z,53.00
2019-01-23T02:00:16.824Z,51.80
2019-01-23T02:01:16.777Z,52.20
2019-01-23T02:02:16.806Z,51.20
2019-01-23T02:03:16.756Z,52.10
2019-01-23T02:04:16.788Z,51.40
2019-01-23T02:05:16.735Z,49.30
2019-01-23T02:06:16.725Z,52.30
2019-01-23T02:07:16.711Z,49.30
2019-01-23T02:08:16.700Z,57.40
2019-01-23T02:09:16.692Z,52.40
2019-01-23T02:10:16.723Z,54.70
2019-01-23T02:11:16.671Z,53.90
2019-01-23T02:12:16.658Z,53.50
2019-01-23T02:13:16.648Z,52.90
2019-01-23T02:14:16.637Z,50.50
2019-01-23T02:15:16.624Z,52.50
2019-01-23T02:16:16.676Z,53.40
2019-01-23T02:17:16.602Z,51.20
2019-01-23T02:18:16.593Z,50.50
2019-01-23T02:19:16.580Z,48.50
2019-01-23T02:20:16.572Z,53.70
2019-01-23T02:21:16.558Z,51.30
2019-01-23T02:22:16.585Z,51.00
2019-01-23T02:23:16.540Z,51.40
2019-01-23T02:24:16.527Z,56.00
2019-01-23T02:25:16.514Z,52.20
2019-01-23T02:26:16.510Z,53.90
2019-01-23T02:27:16.541Z,53.00
2019-01-23T02:28:16.489Z,52.70
2019-01-23T02:29:16.520Z,53.00
2019-01-23T02:30:16.543Z,51.70
2019-01-23T02:31:16.448Z,49.00
2019-01-23T02:32:16.454Z,46.90
2019-01-23T02:33:16.432Z,49.20
2019-01-23T02:34:16.421Z,50.70
2019-01-23T02:35:16.414Z,50.60
2019-01-23T02:36:16.437Z,53.90
2019-01-23T02:37:16.387Z,51.60
2019-01-23T02:38:16.371Z,50.10
2019-01-23T02:39:16.362Z,51.00
2019-01-23T02:40:16.354Z,53.00
2019-01-23T02:41:16.387Z,51.50
2019-01-23T02:42:16.330Z,52.20
2019-01-23T02:43:16.321Z,48.00
2019-01-23T02:44:16.307Z,48.90
2019-01-23T02:45:16.296Z,49.60
2019-01-23T02:46:16.290Z,51.70
2019-01-23T02:47:16.316Z,51.20
2019-01-23T02:48:16.263Z,51.00
2019-01-23T02:49:16.262Z,49.70
2019-01-23T02:50:16.242Z,51.80
2019-01-23T02:51:16.231Z,49.20
2019-01-23T02:52:16.281Z,48.20
2019-01-23T02:53:16.208Z,49.30
2019-01-23T02:54:16.199Z,47.60
2019-01-23T02:55:16.195Z,50.00
2019-01-23T02:56:16.176Z,50.00
2019-01-23T02:57:16.167Z,50.40
2019-01-23T02:58:16.221Z,50.00
2019-01-23T02:59:17.459Z,50.90
2019-01-23T03:00:16.133Z,51.90
2019-01-23T03:01:16.121Z,52.10
2019-01-23T03:02:16.110Z,53.40
2019-01-23T03:03:16.099Z,51.20
2019-01-23T03:04:16.133Z,50.70
2019-01-23T03:05:16.080Z,51.50
2019-01-23T03:06:16.067Z,48.40
2019-01-23T03:07:16.058Z,50.60
2019-01-23T03:08:16.046Z,49.10
2019-01-23T03:09:16.082Z,47.90
2019-01-23T03:10:16.027Z,46.50
2019-01-23T03:11:16.060Z,50.30
2019-01-23T03:12:16.003Z,50.30
2019-01-23T03:13:15.992Z,47.10
2019-01-23T03:14:15.983Z,46.70
2019-01-23T03:15:16.018Z,50.00
2019-01-23T03:16:15.969Z,50.00
2019-01-23T03:17:15.949Z,47.00
2019-01-23T03:18:15.941Z,51.60
2019-01-23T03:19:15.928Z,48.80
2019-01-23T03:20:15.932Z,47.80
2019-01-23T03:21:15.951Z,48.00
2019-01-23T03:22:15.896Z,50.30
2019-01-23T03:23:15.884Z,50.10
2019-01-23T03:24:15.903Z,48.50
2019-01-23T03:25:15.862Z,50.10
2019-01-23T03:26:15.893Z,49.50
2019-01-23T03:27:15.841Z,46.30
2019-01-23T03:28:15.834Z,45.10
2019-01-23T03:29:15.865Z,48.20
2019-01-23T03:30:15.808Z,48.40
2019-01-23T03:31:15.800Z,49.00
2019-01-23T03:32:15.790Z,47.50
2019-01-23T03:33:15.799Z,47.30
2019-01-23T03:34:15.772Z,47.20
2019-01-23T03:35:15.801Z,46.20
2019-01-23T03:36:15.741Z,47.20
2019-01-23T03:37:16.709Z,46.40
2019-01-23T03:38:15.720Z,46.40
2019-01-23T03:39:15.713Z,47.10
2019-01-23T03:40:15.695Z,43.70
2019-01-23T03:41:15.740Z,44.40
2019-01-23T03:42:15.678Z,44.10
2019-01-23T03:43:15.663Z,44.00
2019-01-23T03:44:15.657Z,46.30
2019-01-23T03:45:15.679Z,42.40
2019-01-23T03:46:15.676Z,43.40
2019-01-23T03:47:15.631Z,43.50
2019-01-23T03:48:15.616Z,45.10
2019-01-23T03:49:15.641Z,45.70
2019-01-23T03:50:15.587Z,46.60
2019-01-23T03:51:15.575Z,42.40
2019-01-23T03:52:15.566Z,41.40
2019-01-23T03:53:15.556Z,43.60
2019-01-23T03:54:15.592Z,44.50
2019-01-23T03:55:15.547Z,43.80
2019-01-23T03:56:15.571Z,47.30
2019-01-23T03:57:15.512Z,43.60
2019-01-23T03:58:15.500Z,44.30
2019-01-23T03:59:15.489Z,42.40
2019-01-23T04:00:15.481Z,41.70
2019-01-23T04:01:15.471Z,40.80
2019-01-23T04:02:15.524Z,44.10
2019-01-23T04:03:15.451Z,41.20
2019-01-23T04:04:15.436Z,42.00
2019-01-23T04:05:15.423Z,42.70
2019-01-23T04:06:15.414Z,44.90
2019-01-23T04:07:15.404Z,42.70
2019-01-23T04:08:15.441Z,47.10
2019-01-23T04:09:15.390Z,45.90
2019-01-23T04:10:15.418Z,42.20
2019-01-23T04:11:15.361Z,43.50
2019-01-23T04:12:15.347Z,42.40
2019-01-23T04:13:15.338Z,41.70
2019-01-23T04:14:15.366Z,41.50
2019-01-23T04:15:15.315Z,43.00
2019-01-23T04:16:15.305Z,43.60
2019-01-23T04:17:15.297Z,43.40
2019-01-23T04:18:15.285Z,43.00
2019-01-23T04:19:15.272Z,45.00
2019-01-23T04:20:15.305Z,42.50
2019-01-23T04:21:15.259Z,45.00
2019-01-23T04:22:15.238Z,43.70
2019-01-23T04:23:15.278Z,43.70
2019-01-23T04:24:15.255Z,44.00
2019-01-23T04:25:15.250Z,42.00
2019-01-23T04:26:15.194Z,40.70
2019-01-23T04:27:15.200Z,41.60
2019-01-23T04:28:15.172Z,40.50
2019-01-23T04:29:15.164Z,42.40
2019-01-23T04:30:15.150Z,42.70
2019-01-23T04:31:15.187Z,43.90
2019-01-23T04:32:15.130Z,41.90
2019-01-23T04:33:15.127Z,45.30
2019-01-23T04:34:15.164Z,42.40
2019-01-23T04:35:15.099Z,42.00
2019-01-23T04:36:15.085Z,43.50
2019-01-23T04:37:15.077Z,41.80
2019-01-23T04:38:15.068Z,41.20
2019-01-23T04:39:15.052Z,40.40
2019-01-23T04:40:15.101Z,43.70
2019-01-23T04:41:15.031Z,42.00
2019-01-23T04:42:15.020Z,43.80
2019-01-23T04:43:15.014Z,42.80
2019-01-23T04:44:15.032Z,44.70
2019-01-23T04:45:14.986Z,43.10
2019-01-23T04:46:15.028Z,42.40
2019-01-23T04:47:15.022Z,43.50
2019-01-23T04:48:15.015Z,39.70
2019-01-23T04:49:14.948Z,43.60
2019-01-23T04:50:14.936Z,43.60
2019-01-23T04:51:14.936Z,45.20
2019-01-23T04:52:14.914Z,44.90
2019-01-23T04:53:14.902Z,45.40
2019-01-23T04:54:14.951Z,45.70
2019-01-23T04:55:14.884Z,46.00
2019-01-23T04:56:14.914Z,45.70
2019-01-23T04:57:14.919Z,44.10
2019-01-23T04:58:14.846Z,49.90
2019-01-23T04:59:14.889Z,47.00
2019-01-23T05:00:14.842Z,42.70
2019-01-23T05:01:14.814Z,47.30
2019-01-23T05:02:14.821Z,46.60
2019-01-23T05:03:14.838Z,44.40
2019-01-23T05:04:14.823Z,45.20
2019-01-23T05:05:14.787Z,44.50
2019-01-23T05:06:14.759Z,45.60
2019-01-23T05:07:14.768Z,47.50
2019-01-23T05:08:14.744Z,44.20
2019-01-23T05:09:14.726Z,45.40
2019-01-23T05:10:14.761Z,43.90
2019-01-23T05:11:14.707Z,47.90
2019-01-23T05:12:14.692Z,44.60
2019-01-23T05:13:14.683Z,46.40
2019-01-23T05:14:14.678Z,47.50
2019-01-23T05:15:14.701Z,46.20
2019-01-23T05:16:14.653Z,47.80
2019-01-23T05:17:14.684Z,47.90
2019-01-23T05:18:14.627Z,46.00
2019-01-23T05:19:14.618Z,46.80
2019-01-23T05:20:14.606Z,49.90
2019-01-23T05:21:16.224Z,48.80
2019-01-23T05:22:14.583Z,46.60
2019-01-23T05:23:14.574Z,47.80
2019-01-23T05:24:14.566Z,47.10
2019-01-23T05:25:14.552Z,48.30
2019-01-23T05:26:14.539Z,46.50
2019-01-23T05:27:14.573Z,49.10
2019-01-23T05:28:14.519Z,48.50
2019-01-23T05:29:14.508Z,50.50
2019-01-23T05:30:14.497Z,50.90
2019-01-23T05:31:14.492Z,48.10
2019-01-23T05:32:14.477Z,51.80
2019-01-23T05:33:14.514Z,46.40
2019-01-23T05:34:14.455Z,48.90
2019-01-23T05:35:14.443Z,51.80
2019-01-23T05:36:14.433Z,48.80
2019-01-23T05:37:14.423Z,50.90
2019-01-23T05:38:14.410Z,51.40
2019-01-23T05:39:14.450Z,52.90
2019-01-23T05:40:14.393Z,51.30
2019-01-23T05:41:14.410Z,52.10
2019-01-23T05:42:14.501Z,53.20
2019-01-23T05:43:14.356Z,50.70
2019-01-23T05:44:14.347Z,51.90
2019-01-23T05:45:14.339Z,51.60
2019-01-23T05:46:14.323Z,48.70
2019-01-23T05:47:14.316Z,53.90
2019-01-23T05:48:14.350Z,53.70
2019-01-23T05:49:14.294Z,52.40
2019-01-23T05:50:14.286Z,55.70
2019-01-23T05:51:14.321Z,52.40
2019-01-23T05:52:14.261Z,54.40
2019-01-23T05:53:14.246Z,57.50
2019-01-23T05:54:14.275Z,57.10
2019-01-23T05:55:14.233Z,55.40
2019-01-23T05:56:14.263Z,54.90
2019-01-23T05:57:14.241Z,58.60
2019-01-23T05:58:14.193Z,55.20
2019-01-23T05:59:14.184Z,56.30
2019-01-23T06:00:14.171Z,58.40
2019-01-23T06:01:14.161Z,56.00
2019-01-23T06:02:14.150Z,56.50
2019-01-23T06:03:14.200Z,56.50
2019-01-23T06:04:14.178Z,59.20
2019-01-23T06:05:14.116Z,63.60
2019-01-23T06:06:14.114Z,59.00
2019-01-23T06:07:14.101Z,58.80
2019-01-23T06:08:14.095Z,60.40
2019-01-23T06:09:14.134Z,60.70
2019-01-23T06:10:14.063Z,60.20
2019-01-23T06:11:14.054Z,56.90
2019-01-23T06:12:14.091Z,58.90
2019-01-23T06:13:14.035Z,62.50
2019-01-23T06:14:14.023Z,59.90
2019-01-23T06:15:14.011Z,57.60
2019-01-23T06:16:14.008Z,59.10
2019-01-23T06:17:13.991Z,62.80
2019-01-23T06:18:14.023Z,60.00
2019-01-23T06:19:13.965Z,61.70
2019-01-23T06:20:13.957Z,58.10
2019-01-23T06:21:13.941Z,60.70
2019-01-23T06:22:13.945Z,58.10
2019-01-23T06:23:13.923Z,63.80
2019-01-23T06:24:13.964Z,62.00
2019-01-23T06:25:13.918Z,63.00
2019-01-23T06:26:13.930Z,62.30
2019-01-23T06:27:13.880Z,60.90
2019-01-23T06:28:13.929Z,64.60
2019-01-23T06:29:13.855Z,61.10
2019-01-23T06:30:13.861Z,59.90
2019-01-23T06:31:13.846Z,60.00
2019-01-23T06:32:13.882Z,62.50
2019-01-23T06:33:13.814Z,61.70
2019-01-23T06:34:13.807Z,60.10
2019-01-23T06:35:13.800Z,62.10
2019-01-23T06:36:13.777Z,60.00
2019-01-23T06:37:13.770Z,58.70
2019-01-23T06:38:13.800Z,60.60
2019-01-23T06:39:13.744Z,62.60
2019-01-23T06:40:13.736Z,60.00
2019-01-23T06:41:13.732Z,59.20
2019-01-23T06:42:13.716Z,61.30
2019-01-23T06:43:13.743Z,60.70
2019-01-23T06:44:13.752Z,60.60
2019-01-23T06:45:13.753Z,62.80
2019-01-23T06:46:13.679Z,61.00
2019-01-23T06:47:13.661Z,61.00
2019-01-23T06:48:13.652Z,57.00
2019-01-23T06:49:13.637Z,59.50
2019-01-23T06:50:13.675Z,62.60
2019-01-23T06:51:13.628Z,59.80
2019-01-23T06:52:13.610Z,61.40
2019-01-23T06:53:14.221Z,62.00
2019-01-23T06:54:13.650Z,62.10
2019-01-23T06:55:13.588Z,61.80
2019-01-23T06:56:13.572Z,60.50
2019-01-23T06:57:13.547Z,59.30
2019-01-23T06:58:13.591Z,58.30
2019-01-23T06:59:13.524Z,59.10
2019-01-23T07:00:17.182Z,62.30
2019-01-23T07:01:13.506Z,59.80
2019-01-23T07:02:13.495Z,61.80
2019-01-23T07:03:13.498Z,61.30
2019-01-23T07:04:13.525Z,63.00
2019-01-23T07:05:13.468Z,61.30
2019-01-23T07:06:13.500Z,60.30
2019-01-23T07:07:13.441Z,59.70
2019-01-23T07:08:13.539Z,61.20
2019-01-23T07:09:13.419Z,62.00
2019-01-23T07:10:13.525Z,60.50
2019-01-23T07:11:13.450Z,62.00
2019-01-23T07:12:13.387Z,61.60
2019-01-23T07:13:13.442Z,60.90
2019-01-23T07:14:13.402Z,59.50
2019-01-23T07:15:13.354Z,60.90
2019-01-23T07:16:13.347Z,62.70
2019-01-23T07:17:13.330Z,60.50
2019-01-23T07:18:13.321Z,60.70
2019-01-23T07:19:13.364Z,64.30
2019-01-23T07:20:13.298Z,62.30
2019-01-23T07:21:13.290Z,62.60
2019-01-23T07:22:13.284Z,62.00
2019-01-23T07:23:13.268Z,62.10
2019-01-23T07:24:13.308Z,59.90
2019-01-23T07:25:13.273Z,64.10
2019-01-23T07:26:13.725Z,61.60
2019-01-23T07:27:13.219Z,61.10
2019-01-23T07:28:13.234Z,65.00
2019-01-23T07:29:13.211Z,64.70
2019-01-23T07:30:13.258Z,61.00
2019-01-23T07:31:13.235Z,62.70
2019-01-23T07:32:13.171Z,65.10
2019-01-23T07:33:13.164Z,62.40
2019-01-23T07:34:13.147Z,60.80
2019-01-23T07:35:13.165Z,63.20
2019-01-23T07:36:13.196Z,61.00
2019-01-23T07:37:13.214Z,61.70
2019-01-23T07:38:13.137Z,65.40
2019-01-23T07:39:13.248Z,66.40
2019-01-23T07:40:13.103Z,65.10
2019-01-23T07:41:13.072Z,61.20
2019-01-23T07:42:13.062Z,63.20
2019-01-23T07:43:13.167Z,62.50
2019-01-23T07:44:13.056Z,64.20
2019-01-23T07:45:13.078Z,68.20
2019-01-23T07:46:13.082Z,62.60
2019-01-23T07:47:13.066Z,65.00
2019-01-23T07:48:13.055Z,68.80
2019-01-23T07:49:12.997Z,63.30
2019-01-23T07:50:13.044Z,61.60
2019-01-23T07:51:12.965Z,64.50
2019-01-23T07:52:12.949Z,62.10
2019-01-23T07:53:12.942Z,64.30
2019-01-23T07:54:12.992Z,59.90
2019-01-23T07:55:12.930Z,58.70
2019-01-23T07:56:12.909Z,59.10
2019-01-23T07:57:12.906Z,61.80
2019-01-23T07:58:12.887Z,64.10
2019-01-23T07:59:12.879Z,63.00
2019-01-23T08:00:12.923Z,63.80
2019-01-23T08:01:12.905Z,60.60
2019-01-23T08:02:12.862Z,60.80
2019-01-23T08:03:12.836Z,57.50
2019-01-23T08:04:12.889Z,62.50
2019-01-23T08:05:19.235Z,59.60
2019-01-23T08:06:14.313Z,61.60
2019-01-23T08:07:12.818Z,62.30
2019-01-23T08:08:12.778Z,63.00
2019-01-23T08:09:12.767Z,59.20
2019-01-23T08:10:12.803Z,62.50
2019-01-23T08:11:12.782Z,58.50
2019-01-23T08:12:12.793Z,61.30
2019-01-23T08:13:12.773Z,63.80
2019-01-23T08:14:12.841Z,60.10
2019-01-23T08:15:12.696Z,59.40
2019-01-23T08:16:12.703Z,60.00
2019-01-23T08:17:12.685Z,62.30
2019-01-23T08:18:12.694Z,58.60
2019-01-23T08:19:12.676Z,60.80
2019-01-23T08:20:12.694Z,56.40
2019-01-23T08:21:12.646Z,58.80
2019-01-23T08:22:12.630Z,57.60
2019-01-23T08:23:12.615Z,59.10
2019-01-23T08:24:12.601Z,58.50
2019-01-23T08:25:12.591Z,59.40
2019-01-23T08:26:12.629Z,60.60
2019-01-23T08:27:12.568Z,58.30
2019-01-23T08:28:12.560Z,59.70
2019-01-23T08:29:12.548Z,60.10
2019-01-23T08:30:12.548Z,65.60
2019-01-23T08:31:12.572Z,59.20
2019-01-23T08:32:12.528Z,55.70
2019-01-23T08:33:12.516Z,59.80
2019-01-23T08:34:12.495Z,61.00
2019-01-23T08:35:12.478Z,60.40
2019-01-23T08:36:12.532Z,59.70
2019-01-23T08:37:12.507Z,58.00
2019-01-23T08:38:12.452Z,58.60
2019-01-23T08:39:12.451Z,63.40
2019-01-23T08:40:12.440Z,56.30
2019-01-23T08:41:12.415Z,57.10
2019-01-23T08:42:12.404Z,55.20
2019-01-23T08:43:12.448Z,58.20
2019-01-23T08:44:12.388Z,57.20
2019-01-23T08:45:12.377Z,57.00
2019-01-23T08:46:12.364Z,55.70
2019-01-23T08:47:12.350Z,56.80
2019-01-23T08:48:12.348Z,58.90
2019-01-23T08:49:12.379Z,55.20
2019-01-23T08:50:12.317Z,54.20
2019-01-23T08:51:12.312Z,57.80
2019-01-23T08:52:12.325Z,54.50
2019-01-23T08:53:12.338Z,58.90
2019-01-23T08:54:12.292Z,56.60
2019-01-23T08:55:12.262Z,59.20
2019-01-23T08:56:12.255Z,55.80
2019-01-23T08:57:12.243Z,59.00
2019-01-23T08:58:12.232Z,54.40
2019-01-23T08:59:12.267Z,59.10
2019-01-23T09:00:12.273Z,54.70
2019-01-23T09:01:12.259Z,57.30
2019-01-23T09:02:12.205Z,56.00
2019-01-23T09:03:12.185Z,57.60
2019-01-23T09:04:12.163Z,55.90
2019-01-23T09:05:12.153Z,52.20
2019-01-23T09:06:12.218Z,52.10
2019-01-23T09:07:12.180Z,56.30
2019-01-23T09:08:12.132Z,52.90
2019-01-23T09:09:12.109Z,54.60
2019-01-23T09:10:12.097Z,50.60
2019-01-23T09:11:12.171Z,50.00
2019-01-23T09:12:12.084Z,51.00
2019-01-23T09:13:12.084Z,53.20
2019-01-23T09:14:12.065Z,54.20
2019-01-23T09:15:12.060Z,50.40
2019-01-23T09:16:12.031Z,57.70
2019-01-23T09:17:12.085Z,54.70
2019-01-23T09:18:12.016Z,57.00
2019-01-23T09:19:12.074Z,53.00
2019-01-23T09:20:12.012Z,52.70
2019-01-23T09:21:11.981Z,52.70
2019-01-23T09:22:11.974Z,51.40
2019-01-23T09:23:11.959Z,54.50
2019-01-23T09:24:11.959Z,54.30
2019-01-23T09:25:11.993Z,53.40
2019-01-23T09:26:11.936Z,58.00
2019-01-23T09:27:11.929Z,56.40
2019-01-23T09:28:11.913Z,55.00
2019-01-23T09:29:11.893Z,53.50
2019-01-23T09:30:11.945Z,56.70
2019-01-23T09:31:11.878Z,55.40
2019-01-23T09:32:11.877Z,57.50
2019-01-23T09:33:11.854Z,57.10
2019-01-23T09:34:11.844Z,51.90
2019-01-23T09:35:11.828Z,55.40
2019-01-23T09:36:11.867Z,51.60
2019-01-23T09:37:11.876Z,54.10
2019-01-23T09:38:11.794Z,56.50
2019-01-23T09:39:11.805Z,58.20
2019-01-23T09:40:11.777Z,57.00
2019-01-23T09:41:11.808Z,53.00
2019-01-23T09:42:11.798Z,55.20
2019-01-23T09:43:11.749Z,58.20
2019-01-23T09:44:11.891Z,54.50
2019-01-23T09:45:11.736Z,58.20
2019-01-23T09:46:11.748Z,51.70
2019-01-23T09:47:11.697Z,56.50
2019-01-23T09:48:11.692Z,55.60
2019-01-23T09:49:11.675Z,51.50
2019-01-23T09:50:11.666Z,50.00
2019-01-23T09:51:11.648Z,52.50
2019-01-23T09:52:11.688Z,50.60
2019-01-23T09:53:11.639Z,51.20
2019-01-23T09:54:11.660Z,50.00
2019-01-23T09:55:11.609Z,47.80
2019-01-23T09:56:11.606Z,51.20
2019-01-23T09:57:11.629Z,50.20
2019-01-23T09:58:11.580Z,46.30
2019-01-23T09:59:11.589Z,48.70
2019-01-23T10:00:11.567Z,52.40
2019-01-23T10:01:11.548Z,50.10
2019-01-23T10:02:11.680Z,48.50
2019-01-23T10:03:11.580Z,47.70
2019-01-23T10:04:11.527Z,52.60
2019-01-23T10:05:11.508Z,48.00
2019-01-23T10:06:11.496Z,47.90
2019-01-23T10:07:11.518Z,46.90
2019-01-23T10:08:11.477Z,50.00
2019-01-23T10:09:11.506Z,47.40
2019-01-23T10:10:11.446Z,49.80
2019-01-23T10:11:11.485Z,49.10
2019-01-23T10:12:11.470Z,51.40
2019-01-23T10:13:11.471Z,49.90
2019-01-23T10:14:11.407Z,47.00
2019-01-23T10:15:11.452Z,47.70
2019-01-23T10:16:11.388Z,48.80
2019-01-23T10:17:11.379Z,49.30
2019-01-23T10:18:11.390Z,47.50
2019-01-23T10:19:11.367Z,48.40
2019-01-23T10:20:11.340Z,47.10
2019-01-23T10:21:11.422Z,49.50
2019-01-23T10:22:11.334Z,48.80
2019-01-23T10:23:11.308Z,51.10
2019-01-23T10:24:11.304Z,45.60
2019-01-23T10:25:11.320Z,47.60
2019-01-23T10:26:11.385Z,44.30
2019-01-23T10:27:11.314Z,50.80
2019-01-23T10:28:11.251Z,48.50
2019-01-23T10:29:11.287Z,47.80
2019-01-23T10:30:11.225Z,49.90
2019-01-23T10:31:11.224Z,47.90
2019-01-23T10:32:11.222Z,46.80
2019-01-23T10:33:11.371Z,48.30
2019-01-23T10:34:11.204Z,46.80
2019-01-23T10:35:11.174Z,47.20
2019-01-23T10:36:11.175Z,49.70
2019-01-23T10:37:11.150Z,50.60
2019-01-23T10:38:11.149Z,49.20
2019-01-23T10:39:11.221Z,47.80
2019-01-23T10:40:11.119Z,47.30
2019-01-23T10:41:11.114Z,47.30
2019-01-23T10:42:11.100Z,49.40
2019-01-23T10:43:11.090Z,49.30
2019-01-23T10:44:11.074Z,46.10
2019-01-23T10:45:11.137Z,50.10
2019-01-23T10:46:11.052Z,51.10
2019-01-23T10:47:11.093Z,48.20
2019-01-23T10:48:11.059Z,50.80
2019-01-23T10:49:11.077Z,49.00
2019-01-23T10:50:11.010Z,55.10
2019-01-23T10:51:11.003Z,48.60
2019-01-23T10:52:11.100Z,50.70
2019-01-23T10:53:10.983Z,48.30
2019-01-23T10:54:10.989Z,51.20
2019-01-23T10:55:11.155Z,47.20
2019-01-23T10:56:10.950Z,49.30
2019-01-23T10:57:10.949Z,47.10
2019-01-23T10:58:10.924Z,49.20
2019-01-23T10:59:10.915Z,50.20
2019-01-23T11:00:10.905Z,49.60
2019-01-23T11:01:13.478Z,48.00
2019-01-23T11:02:11.751Z,49.60
2019-01-23T11:03:10.893Z,48.80
2019-01-23T11:04:10.865Z,48.40
2019-01-23T11:05:10.858Z,48.00
2019-01-23T11:06:10.954Z,47.40
2019-01-23T11:07:10.874Z,49.30
2019-01-23T11:08:10.825Z,46.70
2019-01-23T11:09:10.838Z,46.30
2019-01-23T11:10:10.801Z,48.30
2019-01-23T11:11:10.839Z,48.20
2019-01-23T11:12:10.834Z,47.40
2019-01-23T11:13:10.766Z,48.30
2019-01-23T11:14:10.750Z,48.90
2019-01-23T11:15:10.738Z,50.60
2019-01-23T11:16:10.743Z,49.90
2019-01-23T11:17:10.716Z,46.90
2019-01-23T11:18:10.743Z,48.90
2019-01-23T11:19:10.698Z,50.90
2019-01-23T11:20:10.685Z,48.40
2019-01-23T11:21:10.677Z,47.10
2019-01-23T11:22:10.667Z,45.70
2019-01-23T11:23:10.658Z,47.90
2019-01-23T11:24:10.787Z,47.00
2019-01-23T11:25:10.629Z,47.50
2019-01-23T11:26:10.653Z,46.80
2019-01-23T11:27:10.611Z,48.30
2019-01-23T11:28:10.639Z,48.50
2019-01-23T11:29:10.604Z,49.80
2019-01-23T11:30:10.660Z,46.60
2019-01-23T11:31:12.820Z,50.00
2019-01-23T11:32:10.624Z,49.50
2019-01-23T11:33:10.644Z,49.80
2019-01-23T11:34:10.564Z,44.50
2019-01-23T11:35:10.581Z,49.60
2019-01-23T11:36:10.662Z,49.10
2019-01-23T11:37:11.991Z,48.40
2019-01-23T11:38:10.492Z,46.90
2019-01-23T11:39:10.511Z,44.00
2019-01-23T11:40:10.467Z,43.60
2019-01-23T11:41:10.510Z,44.40
2019-01-23T11:42:10.457Z,49.90
2019-01-23T11:43:10.446Z,45.80
2019-01-23T11:44:11.030Z,48.90
2019-01-23T11:45:10.548Z,44.90
2019-01-23T11:46:10.456Z,44.80
2019-01-23T11:47:10.394Z,44.50
2019-01-23T11:48:10.466Z,47.30
2019-01-23T11:49:10.366Z,48.40
2019-01-23T11:50:10.360Z,45.00
2019-01-23T11:51:10.347Z,43.70
2019-01-23T11:52:10.395Z,45.50
2019-01-23T11:53:10.348Z,40.40
2019-01-23T11:54:10.322Z,46.80
2019-01-23T11:55:10.319Z,43.50
2019-01-23T11:56:10.344Z,44.10
2019-01-23T11:57:10.283Z,45.20
2019-01-23T11:58:10.334Z,43.30
2019-01-23T11:59:10.336Z,44.90
2019-01-23T12:00:10.248Z,45.90
2019-01-23T12:01:10.241Z,45.80
2019-01-23T12:02:10.279Z,46.70
2019-01-23T12:03:10.304Z,46.40
2019-01-23T12:04:10.260Z,47.00
2019-01-23T12:05:10.193Z,45.00
2019-01-23T12:06:10.240Z,44.10
2019-01-23T12:07:10.840Z,48.40
2019-01-23T12:08:13.149Z,44.40
2019-01-23T12:09:10.195Z,45.10
2019-01-23T12:10:10.190Z,45.10
2019-01-23T12:11:10.127Z,44.80
2019-01-23T12:12:10.121Z,43.50
2019-01-23T12:13:10.117Z,43.20
2019-01-23T12:14:10.095Z,44.70
2019-01-23T12:15:10.147Z,44.60
2019-01-23T12:16:10.073Z,42.90
2019-01-23T12:17:10.105Z,42.50
2019-01-23T12:18:10.051Z,46.10
2019-01-23T12:19:10.040Z,50.60
2019-01-23T12:20:10.038Z,44.50
2019-01-23T12:21:10.071Z,44.10
2019-01-23T12:22:10.057Z,42.20
2019-01-23T12:23:10.017Z,44.80
2019-01-23T12:24:09.990Z,43.30
2019-01-23T12:25:10.027Z,44.80
2019-01-23T12:26:09.971Z,42.50
2019-01-23T12:27:09.956Z,45.30
2019-01-23T12:28:09.952Z,46.40
2019-01-23T12:29:09.967Z,40.60
2019-01-23T12:30:09.922Z,46.70
2019-01-23T12:31:09.959Z,44.00
2019-01-23T12:32:09.902Z,41.10
2019-01-23T12:33:09.892Z,42.10
2019-01-23T12:34:09.880Z,44.20
2019-01-23T12:35:09.880Z,45.30
2019-01-23T12:36:09.869Z,45.70
2019-01-23T12:37:09.894Z,43.20
2019-01-23T12:38:09.848Z,44.00
2019-01-23T12:39:09.826Z,42.70
2019-01-23T12:40:09.816Z,42.30
2019-01-23T12:41:09.806Z,46.90
2019-01-23T12:42:09.801Z,41.70
2019-01-23T12:43:09.817Z,45.50
2019-01-23T12:44:09.840Z,46.30
2019-01-23T12:45:09.763Z,43.60
2019-01-23T12:46:09.751Z,42.10
2019-01-23T12:47:09.733Z,44.10
2019-01-23T12:48:09.761Z,45.10
2019-01-23T12:49:09.762Z,45.30
2019-01-23T12:50:09.718Z,44.80
2019-01-23T12:51:09.706Z,44.50
2019-01-23T12:52:09.687Z,43.10